Time;durP1;ratioP1;P1;durP2;ratioP2;P2;SDS_P1;SDS_P2;PMS_P1;PMS_P2;Temp;Humidity;BMP_temperature;BMP_pressure;BME280_temperature;BME280_humidity;BME280_pressure;Samples;Min_cycle;Max_cycle;Signal;HPM_P1;HPM_P2
2020/12/31 00:00:13;;;;;;;12.38;5.43;;;4.20;99.90;;;;;;4975186;28;20561;-83
2020/12/31 00:02:40;;;;;;;11.25;5.82;;;4.40;99.90;;;;;;4980856;28;20398;-83
2020/12/31 00:05:07;;;;;;;9.23;4.97;;;4.40;99.90;;;;;;4984819;28;20050;-82
2020/12/31 00:07:33;;;;;;;12.27;5.35;;;4.20;99.90;;;;;;4980042;28;20053;-83
2020/12/31 00:10:02;;;;;;;10.05;5.68;;;4.40;99.90;;;;;;4986159;28;20370;-83
2020/12/31 00:12:28;;;;;;;12.25;5.88;;;4.40;99.90;;;;;;4989066;28;20058;-82
2020/12/31 00:14:54;;;;;;;12.70;6.32;;;4.50;99.90;;;;;;5003935;28;20054;-78
2020/12/31 00:17:21;;;;;;;11.82;5.22;;;4.30;99.90;;;;;;4983190;28;20048;-83
2020/12/31 00:19:48;;;;;;;11.00;5.30;;;4.30;99.90;;;;;;4975735;28;20046;-83
2020/12/31 00:22:14;;;;;;;12.13;6.55;;;4.40;99.90;;;;;;4992912;28;20042;-82
2020/12/31 00:24:41;;;;;;;13.00;6.40;;;4.40;99.90;;;;;;4990567;28;20073;-82
2020/12/31 00:27:08;;;;;;;12.00;5.68;;;4.40;99.90;;;;;;5002436;28;20137;-85
2020/12/31 00:29:34;;;;;;;10.27;5.60;;;4.40;99.90;;;;;;4992159;28;20816;-87
2020/12/31 00:32:01;;;;;;;11.63;5.93;;;4.50;99.90;;;;;;4986509;28;20052;-81
2020/12/31 00:34:27;;;;;;;10.45;5.75;;;4.50;99.90;;;;;;5008404;28;20057;-85
2020/12/31 00:36:54;;;;;;;11.25;6.15;;;4.50;99.90;;;;;;5005063;28;20057;-82
2020/12/31 00:39:20;;;;;;;12.50;5.07;;;4.60;99.90;;;;;;5003163;28;20054;-78
2020/12/31 00:41:47;;;;;;;11.32;6.10;;;4.60;99.90;;;;;;4985049;28;20552;-81
2020/12/31 00:44:14;;;;;;;10.45;5.93;;;4.70;99.90;;;;;;5002824;28;20108;-82
2020/12/31 00:46:43;;;;;;;11.80;5.97;;;4.50;99.90;;;;;;4981830;28;20046;-83
2020/12/31 00:49:10;;;;;;;12.20;6.00;;;4.50;99.90;;;;;;4983740;28;20122;-77
2020/12/31 00:51:36;;;;;;;12.85;6.40;;;4.60;99.90;;;;;;4989865;28;20043;-83
2020/12/31 00:54:03;;;;;;;11.38;5.82;;;4.70;99.90;;;;;;4997594;28;20065;-85
2020/12/31 00:56:30;;;;;;;11.88;6.50;;;4.60;99.90;;;;;;4996432;28;20085;-82
2020/12/31 00:58:57;;;;;;;13.57;6.22;;;4.70;99.90;;;;;;5001702;28;20057;-79
2020/12/31 01:01:23;;;;;;;12.15;6.30;;;4.70;99.90;;;;;;4997292;28;20145;-79
2020/12/31 01:03:49;;;;;;;12.80;6.40;;;4.70;99.90;;;;;;5001465;28;20481;-79
2020/12/31 01:06:16;;;;;;;12.32;6.00;;;4.80;99.90;;;;;;5000042;28;20081;-82
2020/12/31 01:08:42;;;;;;;14.88;6.38;;;4.70;99.90;;;;;;4987982;28;20085;-80
2020/12/31 01:11:09;;;;;;;12.20;5.50;;;4.60;99.90;;;;;;4999827;28;20096;-79
2020/12/31 01:13:35;;;;;;;12.10;5.82;;;4.70;99.90;;;;;;4985818;28;20131;-78
2020/12/31 01:16:02;;;;;;;11.50;5.95;;;4.80;99.90;;;;;;5002933;28;20058;-77
2020/12/31 01:18:28;;;;;;;14.57;5.72;;;4.60;99.90;;;;;;4998955;28;20061;-77
2020/12/31 01:20:55;;;;;;;10.75;5.97;;;4.60;99.90;;;;;;4999840;28;20062;-80
2020/12/31 01:23:21;;;;;;;10.60;5.93;;;4.60;99.90;;;;;;4989118;28;20077;-77
2020/12/31 01:25:50;;;;;;;9.63;5.53;;;4.70;99.90;;;;;;4995929;28;20053;-78
2020/12/31 01:28:18;;;;;;;12.95;6.18;;;4.80;99.90;;;;;;4996722;28;20104;-78
2020/12/31 01:30:45;;;;;;;12.82;6.13;;;4.80;99.90;;;;;;4995460;28;20116;-80
2020/12/31 01:33:11;;;;;;;11.00;6.03;;;4.70;99.90;;;;;;4991045;28;20064;-78
2020/12/31 01:35:38;;;;;;;11.55;6.65;;;4.70;99.90;;;;;;5001539;28;20057;-79
2020/12/31 01:38:05;;;;;;;11.57;6.05;;;4.70;99.90;;;;;;4988288;28;20050;-77
2020/12/31 01:40:31;;;;;;;11.27;6.10;;;4.70;99.90;;;;;;5002960;28;20135;-76
2020/12/31 01:42:57;;;;;;;11.50;6.00;;;4.60;99.90;;;;;;4996884;28;20096;-77
2020/12/31 01:45:24;;;;;;;11.25;6.35;;;4.50;99.90;;;;;;4981921;28;20409;-79
2020/12/31 01:47:50;;;;;;;14.45;5.95;;;4.70;99.90;;;;;;5000788;28;20050;-78
2020/12/31 01:50:18;;;;;;;15.27;6.50;;;4.70;99.90;;;;;;4999012;28;20053;-78
2020/12/31 01:52:46;;;;;;;10.63;6.47;;;4.70;99.90;;;;;;5000322;28;20085;-77
2020/12/31 01:55:13;;;;;;;11.60;5.93;;;4.70;99.90;;;;;;4967819;28;20105;-77
2020/12/31 01:57:39;;;;;;;15.10;6.30;;;4.80;99.90;;;;;;4981139;28;20146;-78
2020/12/31 02:00:06;;;;;;;9.98;5.88;;;4.90;99.90;;;;;;4983929;28;20045;-78
2020/12/31 02:02:32;;;;;;;13.98;6.07;;;4.90;99.90;;;;;;5003285;28;20049;-77
2020/12/31 02:04:59;;;;;;;9.27;5.35;;;4.80;99.90;;;;;;4998707;28;20080;-77
2020/12/31 02:07:26;;;;;;;9.40;5.07;;;4.80;99.90;;;;;;4995076;28;20529;-78
2020/12/31 02:09:53;;;;;;;8.65;5.15;;;4.70;99.90;;;;;;4998710;28;20097;-77
2020/12/31 02:12:19;;;;;;;12.32;5.63;;;4.80;99.90;;;;;;4980847;28;20121;-77
2020/12/31 02:14:53;;;;;;;11.90;6.57;;;4.80;99.90;;;;;;4999885;28;20105;-77
2020/12/31 02:17:19;;;;;;;11.35;5.93;;;4.90;99.90;;;;;;5000171;28;20536;-77
2020/12/31 02:19:46;;;;;;;10.45;5.68;;;4.80;99.90;;;;;;4981883;28;20061;-77
2020/12/31 02:22:14;;;;;;;9.38;5.70;;;4.80;99.90;;;;;;4986392;28;20054;-78
2020/12/31 02:24:42;;;;;;;14.50;5.95;;;4.70;99.90;;;;;;4995788;28;20046;-77
2020/12/31 02:27:15;;;;;;;12.02;6.30;;;4.60;99.90;;;;;;4996173;28;20084;-78
2020/12/31 02:29:42;;;;;;;11.32;6.50;;;4.70;99.90;;;;;;4985694;28;20092;-78
2020/12/31 02:32:09;;;;;;;13.75;6.95;;;4.70;99.90;;;;;;4995604;28;20054;-77
2020/12/31 02:34:35;;;;;;;11.80;6.50;;;4.70;99.90;;;;;;4998829;28;20057;-77
2020/12/31 02:37:01;;;;;;;11.55;5.82;;;4.80;99.90;;;;;;4997819;28;20848;-79
2020/12/31 02:39:28;;;;;;;10.15;5.50;;;4.70;99.90;;;;;;4987758;28;20144;-78
2020/12/31 02:41:54;;;;;;;13.65;6.22;;;4.70;99.90;;;;;;5002212;28;20052;-77
2020/12/31 02:44:21;;;;;;;11.60;6.15;;;4.70;99.90;;;;;;5000992;28;20049;-78
2020/12/31 02:46:47;;;;;;;10.70;6.07;;;4.70;99.90;;;;;;5001676;28;20096;-77
2020/12/31 02:49:13;;;;;;;15.35;6.25;;;4.60;99.90;;;;;;4998268;28;20101;-78
2020/12/31 02:51:40;;;;;;;11.80;6.32;;;4.60;99.90;;;;;;5000346;28;20093;-77
2020/12/31 02:54:07;;;;;;;11.43;6.03;;;4.70;99.90;;;;;;4996425;28;20611;-76
2020/12/31 02:56:33;;;;;;;10.90;6.05;;;4.70;99.90;;;;;;4980838;28;20058;-77
2020/12/31 02:58:59;;;;;;;12.20;6.53;;;4.60;99.90;;;;;;4998726;28;20053;-78
2020/12/31 03:01:26;;;;;;;10.60;6.50;;;4.70;99.90;;;;;;4997218;28;20061;-78
2020/12/31 03:03:52;;;;;;;14.50;7.45;;;4.60;99.90;;;;;;4979245;28;20057;-78
2020/12/31 03:06:19;;;;;;;13.05;7.10;;;4.70;99.90;;;;;;4989390;28;20046;-78
2020/12/31 03:08:47;;;;;;;10.80;6.25;;;4.70;99.90;;;;;;4980220;28;20046;-78
2020/12/31 03:11:20;;;;;;;13.75;7.95;;;4.60;99.90;;;;;;4987672;28;20386;-78
2020/12/31 03:13:47;;;;;;;16.48;7.90;;;4.70;99.90;;;;;;4978200;28;20132;-78
2020/12/31 03:16:14;;;;;;;11.48;6.38;;;4.60;99.90;;;;;;4980930;28;20054;-77
2020/12/31 03:18:41;;;;;;;14.60;6.55;;;4.50;99.90;;;;;;4999315;28;20509;-76
2020/12/31 03:21:09;;;;;;;11.68;6.60;;;4.50;99.90;;;;;;4999308;28;20058;-78
2020/12/31 03:23:36;;;;;;;11.90;7.22;;;4.50;99.90;;;;;;4996902;28;20081;-76
2020/12/31 03:26:03;;;;;;;11.52;6.53;;;4.50;99.90;;;;;;4993347;28;20138;-78
2020/12/31 03:28:29;;;;;;;10.23;5.57;;;4.40;99.90;;;;;;5002007;28;20093;-79
2020/12/31 03:30:56;;;;;;;10.75;6.00;;;4.30;99.90;;;;;;4996393;28;20395;-78
2020/12/31 03:33:22;;;;;;;14.40;6.90;;;4.30;99.90;;;;;;4996540;28;20069;-78
2020/12/31 03:35:50;;;;;;;12.07;6.68;;;4.30;99.90;;;;;;4997950;28;20058;-78
2020/12/31 03:38:18;;;;;;;11.40;6.80;;;4.30;99.90;;;;;;5001419;28;20458;-78
2020/12/31 03:40:44;;;;;;;10.48;5.95;;;4.20;99.90;;;;;;4977794;28;20054;-77
2020/12/31 03:43:11;;;;;;;10.68;6.32;;;4.30;99.90;;;;;;4988011;28;20072;-79
2020/12/31 03:45:38;;;;;;;10.18;5.53;;;4.30;99.90;;;;;;4980583;28;20069;-79
2020/12/31 03:48:05;;;;;;;11.25;5.13;;;4.20;99.90;;;;;;4996646;28;20061;-78
2020/12/31 03:50:32;;;;;;;12.23;5.97;;;4.10;99.90;;;;;;5002203;28;20213;-77
2020/12/31 03:52:58;;;;;;;10.27;5.45;;;4.10;99.90;;;;;;4999860;28;20066;-78
2020/12/31 03:55:25;;;;;;;11.15;5.85;;;4.10;99.90;;;;;;4993869;28;20116;-78
2020/12/31 03:57:51;;;;;;;11.10;5.32;;;4.10;99.90;;;;;;4999248;28;20061;-79
2020/12/31 04:00:18;;;;;;;9.80;5.13;;;4.30;99.90;;;;;;4990996;28;20127;-78
2020/12/31 04:02:44;;;;;;;10.02;5.55;;;4.20;99.90;;;;;;4995467;28;20103;-77
2020/12/31 04:05:11;;;;;;;11.88;6.00;;;4.20;99.90;;;;;;4980070;28;20084;-79
2020/12/31 04:07:37;;;;;;;8.70;5.00;;;4.30;99.90;;;;;;4998181;28;20489;-79
2020/12/31 04:10:04;;;;;;;10.70;5.53;;;4.20;99.90;;;;;;4998330;28;20728;-78
2020/12/31 04:12:31;;;;;;;9.85;5.05;;;4.10;99.90;;;;;;5001146;28;20096;-78
2020/12/31 04:14:57;;;;;;;7.80;4.97;;;4.00;99.90;;;;;;4995852;28;20108;-78
2020/12/31 04:17:24;;;;;;;8.13;5.25;;;4.00;99.90;;;;;;4997380;28;20497;-78
2020/12/31 04:19:50;;;;;;;10.60;5.60;;;4.00;99.90;;;;;;4994726;28;20104;-78
2020/12/31 04:22:17;;;;;;;7.97;4.90;;;4.00;99.90;;;;;;4995293;28;22318;-77
2020/12/31 04:24:44;;;;;;;8.93;4.97;;;4.00;99.90;;;;;;4995712;28;20397;-77
2020/12/31 04:27:10;;;;;;;9.70;5.22;;;4.10;99.90;;;;;;4976147;28;20050;-77
2020/12/31 04:29:37;;;;;;;9.48;4.80;;;3.90;99.90;;;;;;4984277;28;20066;-78
2020/12/31 04:32:04;;;;;;;11.57;4.97;;;4.00;99.90;;;;;;4995996;28;20049;-78
2020/12/31 04:34:31;;;;;;;8.80;4.90;;;4.00;99.90;;;;;;4999120;28;20046;-78
2020/12/31 04:36:58;;;;;;;10.95;5.43;;;4.00;99.90;;;;;;5001098;28;20058;-78
2020/12/31 04:39:24;;;;;;;8.63;4.53;;;4.00;99.90;;;;;;4994551;28;20099;-78
2020/12/31 04:41:57;;;;;;;7.70;3.58;;;4.00;99.90;;;;;;4999054;28;20054;-78
2020/12/31 04:44:23;;;;;;;8.95;4.55;;;4.00;99.90;;;;;;4986959;28;20169;-78
2020/12/31 04:46:56;;;;;;;11.10;6.25;;;3.70;99.90;;;;;;4974173;28;20481;-78
2020/12/31 04:49:51;;;;;;;8.35;4.80;;;4.10;99.90;;;;;;4992156;28;20713;-75
2020/12/31 04:52:18;;;;;;;9.07;4.82;;;4.20;99.90;;;;;;4972130;28;20058;-77
2020/12/31 04:54:45;;;;;;;9.65;5.15;;;4.10;99.90;;;;;;4989248;28;20057;-76
2020/12/31 04:57:11;;;;;;;8.63;4.95;;;4.10;99.90;;;;;;4978046;28;20058;-77
2020/12/31 04:59:38;;;;;;;9.00;4.85;;;4.10;99.90;;;;;;4984742;28;20049;-77
2020/12/31 05:02:08;;;;;;;11.90;5.25;;;4.10;99.90;;;;;;4999903;28;20815;-76
2020/12/31 05:04:34;;;;;;;9.25;5.80;;;4.10;99.90;;;;;;5003618;28;20049;-76
2020/12/31 05:07:01;;;;;;;10.73;4.97;;;4.10;99.90;;;;;;4998340;28;20108;-76
2020/12/31 05:09:27;;;;;;;9.70;4.80;;;4.10;99.90;;;;;;5006166;28;20061;-79
2020/12/31 05:11:54;;;;;;;9.63;4.80;;;4.10;99.90;;;;;;4999940;28;20054;-77
2020/12/31 05:14:31;;;;;;;11.50;5.32;;;4.20;99.90;;;;;;4984113;28;20382;-76
2020/12/31 05:17:14;;;;;;;7.43;4.25;;;4.20;99.90;;;;;;5000085;28;20478;-77
2020/12/31 05:19:41;;;;;;;8.75;4.65;;;4.20;99.90;;;;;;4988524;28;20553;-77
2020/12/31 05:22:18;;;;;;;10.68;4.85;;;4.20;99.90;;;;;;4999015;28;20057;-76
2020/12/31 05:24:50;;;;;;;9.40;5.13;;;4.10;99.90;;;;;;4996586;28;20104;-77
2020/12/31 05:27:17;;;;;;;8.80;4.35;;;4.20;99.90;;;;;;5002408;28;20498;-76
2020/12/31 05:30:08;;;;;;;9.85;4.95;;;4.10;99.90;;;;;;5004359;28;20053;-78
2020/12/31 05:32:39;;;;;;;6.82;3.83;;;4.10;99.90;;;;;;5000241;28;20074;-78
2020/12/31 05:35:11;;;;;;;7.45;4.25;;;4.20;99.90;;;;;;5002297;28;20489;-77
2020/12/31 05:37:38;;;;;;;8.98;4.32;;;4.20;99.90;;;;;;4999183;28;20050;-78
2020/12/31 05:40:09;;;;;;;12.10;4.45;;;4.10;99.90;;;;;;5002565;28;20112;-77
2020/12/31 05:42:36;;;;;;;;;;;4.00;99.90;;;;;;4989172;28;20050;-77
2020/12/31 05:45:14;;;;;;;7.07;3.72;;;4.10;99.90;;;;;;4999051;28;19926;-77
2020/12/31 05:47:51;;;;;;;7.15;3.70;;;4.10;99.90;;;;;;4982597;28;20100;-78
2020/12/31 05:50:25;;;;;;;6.18;3.20;;;4.10;99.90;;;;;;5001264;28;20050;-78
2020/12/31 05:52:53;;;;;;;5.82;3.55;;;4.00;99.90;;;;;;4978209;28;20053;-77
2020/12/31 05:55:25;;;;;;;5.97;3.40;;;4.10;99.90;;;;;;4998459;28;20058;-78
2020/12/31 05:57:55;;;;;;;5.88;3.40;;;4.20;99.90;;;;;;5000474;28;20076;-80
2020/12/31 06:00:23;;;;;;;7.97;3.90;;;4.20;99.90;;;;;;4982192;28;20054;-78
2020/12/31 06:02:58;;;;;;;6.07;3.35;;;4.20;99.90;;;;;;4998105;28;20105;-78
2020/12/31 06:05:25;;;;;;;6.13;3.88;;;4.20;99.90;;;;;;5002426;28;20116;-77
2020/12/31 06:07:57;;;;;;;6.20;3.63;;;4.10;99.90;;;;;;4983832;28;20061;-77
2020/12/31 06:10:29;;;;;;;7.85;3.78;;;4.00;99.90;;;;;;5004229;28;20054;-77
2020/12/31 06:13:01;;;;;;;6.15;3.53;;;4.10;99.90;;;;;;5000655;28;20053;-78
2020/12/31 06:15:30;;;;;;;7.28;3.55;;;4.30;99.90;;;;;;5001919;28;20050;-78
2020/12/31 06:17:58;;;;;;;6.30;3.03;;;4.30;99.90;;;;;;5000182;28;20077;-77
2020/12/31 06:20:26;;;;;;;6.32;3.67;;;4.30;99.90;;;;;;4997867;28;20054;-77
2020/12/31 06:23:00;;;;;;;5.93;3.20;;;4.20;99.90;;;;;;4979011;28;20548;-78
2020/12/31 06:25:31;;;;;;;6.53;3.58;;;4.20;99.90;;;;;;4990106;28;20046;-77
2020/12/31 06:28:07;;;;;;;4.03;2.97;;;4.10;99.90;;;;;;4982731;28;20100;-77
2020/12/31 06:30:35;;;;;;;6.18;3.30;;;4.20;99.90;;;;;;4985484;28;20504;-77
2020/12/31 06:33:28;;;;;;;5.75;3.40;;;4.30;99.90;;;;;;4996058;28;20050;-76
2020/12/31 06:35:57;;;;;;;6.45;3.22;;;4.30;99.90;;;;;;4997976;28;20132;-78
2020/12/31 06:38:35;;;;;;;5.88;3.25;;;4.20;99.90;;;;;;5001669;28;20046;-78
2020/12/31 06:41:03;;;;;;;6.63;3.60;;;4.00;99.90;;;;;;4999107;28;20128;-77
2020/12/31 06:43:38;;;;;;;4.63;3.17;;;4.20;99.90;;;;;;4990553;28;20052;-77
2020/12/31 06:46:20;;;;;;;6.63;3.20;;;4.20;99.90;;;;;;5000433;28;20057;-77
2020/12/31 06:48:53;;;;;;;6.85;3.70;;;4.20;99.90;;;;;;4983694;28;20049;-78
2020/12/31 06:51:27;;;;;;;;;;;4.40;99.90;;;;;;5001620;28;20050;-78
2020/12/31 06:53:53;;;;;;;6.40;3.42;;;4.20;99.90;;;;;;4981170;28;19929;-79
2020/12/31 06:56:46;;;;;;;5.22;3.00;;;4.20;99.90;;;;;;4997422;28;20060;-78
2020/12/31 06:59:38;;;;;;;8.48;3.65;;;4.20;99.90;;;;;;4993242;28;20108;-79
2020/12/31 07:02:14;;;;;;;5.95;3.65;;;4.10;99.90;;;;;;4996480;28;20113;-77
2020/12/31 07:04:42;;;;;;;7.15;3.97;;;4.10;99.90;;;;;;4997758;28;20050;-78
2020/12/31 07:07:18;;;;;;;8.52;4.22;;;4.20;99.90;;;;;;4995953;28;20061;-76
2020/12/31 07:09:58;;;;;;;8.07;4.38;;;4.30;99.90;;;;;;4998638;28;20046;-77
2020/12/31 07:12:50;;;;;;;8.98;4.45;;;4.40;99.90;;;;;;5000448;28;20070;-79
2020/12/31 07:15:18;;;;;;;9.43;4.45;;;4.30;99.90;;;;;;4994088;28;20399;-78
2020/12/31 07:17:46;;;;;;;7.53;4.70;;;4.40;99.90;;;;;;5000101;28;20050;-76
2020/12/31 07:20:17;;;;;;;10.93;5.00;;;4.10;99.90;;;;;;4999367;28;20391;-78
2020/12/31 07:22:47;;;;;;;7.45;4.13;;;4.30;99.90;;;;;;4996105;28;20654;-79
2020/12/31 07:25:18;;;;;;;9.48;4.47;;;4.30;99.90;;;;;;4992605;28;20129;-78
2020/12/31 07:27:46;;;;;;;9.65;4.13;;;4.30;99.90;;;;;;4994754;28;20042;-78
2020/12/31 07:30:20;;;;;;;9.02;4.68;;;4.30;99.90;;;;;;4996278;28;20112;-76
2020/12/31 07:32:51;;;;;;;9.20;4.72;;;4.30;99.90;;;;;;4994065;28;20058;-79
2020/12/31 07:35:24;;;;;;;9.10;4.50;;;4.30;99.90;;;;;;4998838;28;20050;-79
2020/12/31 07:38:11;;;;;;;8.07;3.70;;;4.30;99.90;;;;;;4995498;28;20459;-77
2020/12/31 07:40:46;;;;;;;7.38;3.92;;;4.30;99.90;;;;;;4992688;28;20107;-78
2020/12/31 07:43:20;;;;;;;8.02;4.05;;;4.40;99.90;;;;;;5002285;28;20050;-78
2020/12/31 07:45:48;;;;;;;;;;;4.40;99.90;;;;;;4986264;28;20045;-79
2020/12/31 07:48:20;;;;;;;7.65;3.80;;;4.40;99.90;;;;;;4996364;28;19934;-78
2020/12/31 07:50:59;;;;;;;8.82;4.10;;;4.50;99.90;;;;;;4997708;28;20093;-80
2020/12/31 07:53:26;;;;;;;6.93;4.45;;;4.60;99.90;;;;;;4999773;28;20104;-77
2020/12/31 07:55:54;;;;;;;6.03;3.88;;;4.60;99.90;;;;;;4996296;28;20058;-76
2020/12/31 07:58:22;;;;;;;6.90;3.47;;;4.60;99.90;;;;;;4996749;28;20112;-77
2020/12/31 08:01:03;;;;;;;7.70;3.92;;;4.40;99.90;;;;;;4996554;28;20050;-78
2020/12/31 08:03:30;;;;;;;7.15;3.40;;;4.40;99.90;;;;;;4981279;28;20124;-77
2020/12/31 08:06:02;;;;;;;5.38;3.13;;;4.40;99.90;;;;;;4995027;28;20086;-78
2020/12/31 08:08:29;;;;;;;5.43;3.40;;;4.50;99.90;;;;;;4980495;28;20058;-77
2020/12/31 08:11:43;;;;;;;6.90;3.42;;;4.60;99.90;;;;;;4998251;28;20058;-77
2020/12/31 08:14:10;;;;;;;5.47;3.40;;;4.70;99.90;;;;;;4990248;28;20066;-77
2020/12/31 08:16:38;;;;;;;6.13;3.78;;;4.90;99.90;;;;;;5000837;28;20442;-78
2020/12/31 08:19:05;;;;;;;8.38;3.75;;;4.80;99.90;;;;;;4983070;28;20101;-78
2020/12/31 08:21:33;;;;;;;5.50;3.92;;;4.80;99.90;;;;;;4987796;28;20482;-78
2020/12/31 08:24:09;;;;;;;9.25;3.47;;;4.70;99.90;;;;;;4994075;28;20137;-79
2020/12/31 08:26:37;;;;;;;5.80;3.17;;;4.50;99.90;;;;;;4996620;28;20475;-78
2020/12/31 08:29:04;;;;;;;9.55;3.40;;;4.60;99.90;;;;;;4996946;28;20057;-77
2020/12/31 08:31:32;;;;;;;4.47;3.05;;;4.60;99.90;;;;;;4998567;28;20038;-78
2020/12/31 08:33:59;;;;;;;6.18;3.42;;;4.70;99.90;;;;;;4986437;28;20136;-78
2020/12/31 08:36:27;;;;;;;4.85;3.22;;;4.60;99.90;;;;;;5001137;28;20065;-78
2020/12/31 08:38:54;;;;;;;11.20;3.95;;;4.70;99.90;;;;;;5002416;28;20107;-78
2020/12/31 08:41:21;;;;;;;5.28;3.17;;;4.50;99.90;;;;;;5003888;28;20482;-79
2020/12/31 08:43:52;;;;;;;7.63;3.53;;;4.50;99.90;;;;;;4989520;28;20108;-79
2020/12/31 08:46:19;;;;;;;;;;;4.60;99.90;;;;;;5006183;28;20050;-76
2020/12/31 08:48:53;;;;;;;6.95;3.35;;;4.70;99.90;;;;;;4984582;28;19933;-77
2020/12/31 08:51:27;;;;;;;6.85;3.25;;;4.90;99.90;;;;;;5000858;28;20500;-77
2020/12/31 08:53:56;;;;;;;6.57;3.53;;;4.80;99.90;;;;;;4999375;28;20111;-78
2020/12/31 08:56:25;;;;;;;9.60;3.85;;;5.10;99.90;;;;;;4991693;28;20128;-76
2020/12/31 08:59:05;;;;;;;6.17;3.50;;;4.70;99.90;;;;;;5001832;28;20107;-77
2020/12/31 09:01:32;;;;;;;6.95;3.97;;;4.70;99.90;;;;;;4989379;28;20300;-77
2020/12/31 09:04:18;;;;;;;4.45;3.22;;;4.60;99.90;;;;;;4997397;28;20041;-78
2020/12/31 09:06:47;;;;;;;6.60;3.70;;;4.70;99.90;;;;;;4999043;28;20056;-77
2020/12/31 09:09:18;;;;;;;6.57;3.70;;;4.70;99.90;;;;;;4984811;28;20517;-78
2020/12/31 09:11:58;;;;;;;6.28;3.80;;;4.60;99.90;;;;;;4997085;28;20049;-77
2020/12/31 09:14:26;;;;;;;5.38;3.72;;;4.60;99.90;;;;;;4990140;28;20061;-77
2020/12/31 09:16:52;;;;;;;6.45;3.47;;;4.50;99.90;;;;;;4998934;28;20109;-76
2020/12/31 09:19:19;;;;;;;7.57;3.25;;;4.50;99.90;;;;;;4987926;28;20948;-77
2020/12/31 09:21:46;;;;;;;8.23;3.58;;;4.60;99.90;;;;;;5000298;28;20058;-76
2020/12/31 09:24:14;;;;;;;8.70;4.00;;;4.50;99.90;;;;;;5004332;28;20101;-77
2020/12/31 09:26:57;;;;;;;5.10;3.20;;;4.50;99.90;;;;;;4986655;28;20443;-77
2020/12/31 09:29:29;;;;;;;8.13;3.75;;;4.40;99.90;;;;;;4986916;28;20128;-77
2020/12/31 09:31:56;;;;;;;5.57;3.00;;;4.50;99.90;;;;;;5000506;28;20369;-78
2020/12/31 09:34:23;;;;;;;8.73;3.10;;;4.60;99.90;;;;;;4998199;28;20142;-78
2020/12/31 09:36:49;;;;;;;7.93;3.47;;;4.60;99.90;;;;;;4983406;28;20077;-78
2020/12/31 09:39:16;;;;;;;6.47;3.70;;;4.40;99.90;;;;;;4999480;28;20055;-78
2020/12/31 09:41:42;;;;;;;7.32;3.40;;;4.30;99.90;;;;;;4997474;28;20101;-77
2020/12/31 09:44:09;;;;;;;5.75;3.30;;;4.50;99.90;;;;;;4980978;28;20441;-79
2020/12/31 09:46:35;;;;;;;6.20;3.10;;;4.20;99.90;;;;;;5005664;28;20107;-78
2020/12/31 09:49:02;;;;;;;6.45;3.20;;;4.40;99.90;;;;;;4990761;28;20069;-77
2020/12/31 09:51:28;;;;;;;4.40;2.90;;;4.20;99.90;;;;;;4983942;28;20057;-78
2020/12/31 09:53:55;;;;;;;5.97;3.30;;;4.00;99.90;;;;;;4983173;28;20064;-76
2020/12/31 09:56:28;;;;;;;5.22;3.60;;;3.90;99.90;;;;;;4977689;28;20457;-78
2020/12/31 09:58:55;;;;;;;7.15;3.35;;;4.00;99.90;;;;;;4993142;28;20050;-77
2020/12/31 10:01:22;;;;;;;6.45;3.25;;;3.90;99.90;;;;;;4999439;28;20058;-79
2020/12/31 10:03:48;;;;;;;7.63;3.60;;;3.90;99.90;;;;;;4984951;28;20494;-78
2020/12/31 10:06:15;;;;;;;7.30;3.80;;;4.50;99.90;;;;;;5001411;28;20124;-77
2020/12/31 10:08:42;;;;;;;6.97;4.07;;;4.30;99.90;;;;;;5006695;28;20772;-81
2020/12/31 10:11:08;;;;;;;7.22;4.10;;;4.20;99.90;;;;;;5000902;28;20547;-78
2020/12/31 10:13:36;;;;;;;7.72;4.13;;;3.90;99.90;;;;;;4983025;28;20054;-80
2020/12/31 10:16:03;;;;;;;10.55;5.10;;;4.00;99.90;;;;;;4989491;28;20127;-78
2020/12/31 10:18:31;;;;;;;6.35;3.90;;;4.00;99.90;;;;;;5001218;28;20308;-80
2020/12/31 10:20:57;;;;;;;8.27;3.95;;;4.20;99.90;;;;;;4985397;28;20140;-79
2020/12/31 10:23:24;;;;;;;7.95;3.35;;;4.30;99.90;;;;;;5003240;28;20046;-78
2020/12/31 10:25:52;;;;;;;8.80;3.70;;;3.90;99.90;;;;;;4979845;28;20103;-78
2020/12/31 10:28:21;;;;;;;9.82;3.70;;;3.90;99.90;;;;;;5002729;28;20053;-79
2020/12/31 10:30:49;;;;;;;7.40;3.55;;;4.00;99.90;;;;;;4983189;28;20042;-77
2020/12/31 10:33:16;;;;;;;6.60;3.40;;;4.10;99.90;;;;;;4989185;28;20059;-77
2020/12/31 10:35:44;;;;;;;5.45;3.13;;;4.00;99.90;;;;;;4983649;28;20539;-79
2020/12/31 10:38:10;;;;;;;6.18;3.30;;;4.00;99.90;;;;;;4989548;28;20317;-77
2020/12/31 10:40:47;;;;;;;6.00;3.42;;;4.00;99.90;;;;;;4978524;28;20082;-76
2020/12/31 10:43:13;;;;;;;5.20;3.40;;;4.10;99.90;;;;;;4995947;28;20109;-81
2020/12/31 10:45:40;;;;;;;5.88;3.50;;;3.90;99.90;;;;;;4999384;28;20474;-77
2020/12/31 10:48:12;;;;;;;7.40;3.85;;;4.20;99.90;;;;;;4983752;28;20054;-77
2020/12/31 10:50:39;;;;;;;5.85;3.58;;;3.80;99.90;;;;;;4980612;28;20046;-77
2020/12/31 10:53:05;;;;;;;8.13;4.00;;;3.90;99.90;;;;;;4986644;28;20065;-77
2020/12/31 10:55:33;;;;;;;7.82;3.58;;;4.00;99.90;;;;;;4994086;28;20073;-76
2020/12/31 10:58:04;;;;;;;6.63;4.03;;;4.00;99.90;;;;;;4980618;28;20049;-78
2020/12/31 11:00:31;;;;;;;8.32;4.05;;;4.00;99.90;;;;;;4978611;28;20068;-76
2020/12/31 11:02:58;;;;;;;8.50;4.15;;;3.90;99.90;;;;;;4999444;28;20065;-76
2020/12/31 11:05:25;;;;;;;7.72;4.32;;;4.00;99.90;;;;;;4985423;28;20611;-75
2020/12/31 11:07:52;;;;;;;9.38;5.05;;;4.00;99.90;;;;;;4999101;28;20069;-75
2020/12/31 11:10:19;;;;;;;8.32;4.60;;;3.70;99.90;;;;;;4986103;28;20190;-76
2020/12/31 11:12:45;;;;;;;9.85;4.55;;;3.80;99.90;;;;;;4981372;28;20053;-73
2020/12/31 11:15:11;;;;;;;7.28;4.35;;;3.90;99.90;;;;;;4989710;28;20123;-74
2020/12/31 11:17:38;;;;;;;7.93;4.55;;;4.00;99.90;;;;;;4998661;28;20082;-74
2020/12/31 11:20:04;;;;;;;10.05;4.80;;;4.10;99.90;;;;;;4999386;28;20057;-74
2020/12/31 11:22:30;;;;;;;11.40;5.47;;;4.00;99.90;;;;;;4997695;28;20780;-75
2020/12/31 11:24:57;;;;;;;8.40;4.78;;;4.10;99.90;;;;;;4997098;28;20056;-74
2020/12/31 11:27:24;;;;;;;10.35;5.28;;;4.10;99.90;;;;;;4995281;28;20056;-79
2020/12/31 11:29:51;;;;;;;9.38;5.35;;;4.20;99.90;;;;;;4987097;28;20113;-79
2020/12/31 11:32:17;;;;;;;8.60;4.97;;;4.20;99.90;;;;;;4997684;28;20050;-79
2020/12/31 11:34:44;;;;;;;9.00;5.25;;;4.10;99.90;;;;;;4982088;28;20081;-80
2020/12/31 11:37:10;;;;;;;9.75;5.15;;;4.00;99.90;;;;;;4995524;28;20065;-75
2020/12/31 11:39:37;;;;;;;9.32;4.68;;;4.00;99.90;;;;;;4997621;28;20062;-75
2020/12/31 11:42:03;;;;;;;10.57;5.57;;;4.00;99.90;;;;;;4998542;28;20205;-75
2020/12/31 11:44:34;;;;;;;9.63;5.72;;;4.00;99.90;;;;;;4998888;28;20053;-75
2020/12/31 11:47:00;;;;;;;14.15;6.53;;;4.10;99.90;;;;;;4985083;28;20050;-76
2020/12/31 11:49:27;;;;;;;12.05;5.88;;;4.10;99.90;;;;;;4997943;28;20127;-76
2020/12/31 11:51:59;;;;;;;11.40;5.78;;;4.10;99.90;;;;;;4997816;28;20084;-76
2020/12/31 11:54:26;;;;;;;10.57;5.90;;;4.30;99.90;;;;;;4999214;28;20489;-75
2020/12/31 11:56:52;;;;;;;8.52;4.55;;;4.20;99.90;;;;;;4979398;28;20109;-71
2020/12/31 11:59:19;;;;;;;8.57;4.95;;;4.70;99.90;;;;;;4998065;28;20482;-71
2020/12/31 12:01:52;;;;;;;8.40;4.72;;;4.50;99.90;;;;;;4999713;28;20061;-70
2020/12/31 12:04:20;;;;;;;10.10;4.82;;;4.10;99.90;;;;;;4988383;28;20096;-70
2020/12/31 12:06:54;;;;;;;8.60;4.60;;;4.00;99.90;;;;;;4996504;28;20046;-70
2020/12/31 12:09:21;;;;;;;9.85;4.70;;;4.00;99.90;;;;;;5003296;28;20046;-72
2020/12/31 12:11:48;;;;;;;6.97;4.47;;;4.00;99.90;;;;;;4997431;28;20042;-69
2020/12/31 12:14:15;;;;;;;8.68;4.75;;;3.90;99.90;;;;;;5004840;28;20141;-72
2020/12/31 12:16:42;;;;;;;12.52;5.55;;;3.70;99.90;;;;;;5000715;28;20559;-72
2020/12/31 12:19:10;;;;;;;9.32;5.30;;;3.80;99.90;;;;;;4989983;28;20222;-72
2020/12/31 12:21:37;;;;;;;10.35;5.60;;;3.80;99.90;;;;;;4999326;28;20123;-71
2020/12/31 12:24:05;;;;;;;10.75;5.30;;;3.80;99.90;;;;;;5000876;28;20050;-73
2020/12/31 12:26:36;;;;;;;11.75;5.35;;;3.60;99.90;;;;;;5005865;28;20045;-72
2020/12/31 12:29:04;;;;;;;10.70;5.65;;;3.90;99.90;;;;;;4999386;28;20128;-71
2020/12/31 12:31:35;;;;;;;9.95;5.50;;;3.90;99.90;;;;;;5001856;28;20057;-71
2020/12/31 12:34:03;;;;;;;9.25;5.00;;;4.00;99.90;;;;;;4999052;28;20902;-71
2020/12/31 12:36:30;;;;;;;9.90;5.75;;;4.20;99.90;;;;;;4999820;28;20049;-71
2020/12/31 12:38:57;;;;;;;11.88;6.05;;;4.10;99.90;;;;;;4998591;28;20053;-70
2020/12/31 12:41:24;;;;;;;16.30;6.15;;;4.00;99.90;;;;;;4996486;28;20050;-71
2020/12/31 12:43:50;;;;;;;10.32;5.90;;;4.00;99.90;;;;;;5003775;28;20539;-71
2020/12/31 12:46:18;;;;;;;10.07;5.32;;;4.10;99.90;;;;;;5005487;28;20050;-70
2020/12/31 12:48:46;;;;;;;10.43;6.18;;;4.10;99.90;;;;;;4997793;28;20588;-72
2020/12/31 12:51:12;;;;;;;10.75;6.18;;;4.00;99.90;;;;;;5002203;28;20049;-71
2020/12/31 12:53:39;;;;;;;10.80;5.97;;;4.10;99.90;;;;;;5002040;28;20046;-71
2020/12/31 12:56:05;;;;;;;10.65;5.82;;;4.00;99.90;;;;;;4988538;28;20448;-80
2020/12/31 12:58:32;;;;;;;12.00;5.53;;;4.40;99.90;;;;;;4984918;28;20133;-74
2020/12/31 13:00:59;;;;;;;10.15;4.80;;;3.80;99.90;;;;;;5001710;28;20057;-72